Main page
METAR-TAF:

METAR-TAF

Airports :

Mashhad International Airport

Mashhad, Iran

latitude: 36-16N, longitude: 059-38E, elevation: 989 m

Current weather observation

The report was made 14 minutes ago, at 08:00 UTC
Wind 6 kt from the East/Northeast
Temperature 10°C
Humidity 34%
Pressure 1021 hPa
Visibility 10 km or more
no clouds below 1500 m and no cumulonimbus

METAR: OIMM 250800Z 07006KT CAVOK 10/M05 Q1020 A3014

Time: 11:44 (08:14 UTC)

Forecast

The report was made 2 hours and 44 minutes ago, at 05:30 UTC
Forecast valid from 25 at 06 UTC to 26 at 12 UTC
Wind 6 kt from the East
Visibility: 7000 m

TAF: OIMM 250530Z 2506/2612 08006KT 7000 NSC

Weather observations and forecasts of more than 4000 airports (METAR and TAF reports).

The available stations are represented by yellow and red dots on the map.

Hover mouse over dot to see the name of the station.

Then click to see weather observations and forecasts.

To change the map : click on the green buttons with a black cross to zoom in, on the green button with a dash to zoom out, or on the green arrows for adjacent maps.


METAR-TAF: